Time;durP1;ratioP1;P1;durP2;ratioP2;P2;SDS_P1;SDS_P2;PMS_P1;PMS_P2;Temp;Humidity;BMP_temperature;BMP_pressure;BME280_temperature;BME280_humidity;BME280_pressure;Samples;Min_cycle;Max_cycle;Signal;HPM_P1;HPM_P2
2021/03/01 00:17:40;;;;;;;103.50;35.40;;;3.50;99.90;;;-143.32;100.00;53642.78;6007252;23;20401;-88
2021/03/01 00:20:19;;;;;;;85.47;38.40;;;3.60;99.90;;;-143.32;100.00;53673.06;6165291;23;20460;-90
2021/03/01 01:01:15;;;;;;;104.83;41.83;;;3.50;99.90;;;-143.32;100.00;53507.44;5931425;23;20398;-89
2021/03/01 01:18:42;;;;;;;144.30;43.90;;;3.50;99.90;;;-143.32;100.00;53297.41;5865205;24;20498;-90
2021/03/01 01:55:32;;;;;;;126.90;37.50;;;3.40;99.90;;;-143.32;100.00;53232.75;6125094;23;20402;-87
2021/03/01 01:58:37;;;;;;;104.40;37.67;;;3.40;99.90;;;-143.32;100.00;53198.44;6124638;23;20442;-90
2021/03/01 02:05:16;;;;;;;175.20;43.77;;;3.40;99.90;;;-143.32;100.00;53154.00;6144500;23;20416;-90
2021/03/01 02:12:02;;;;;;;143.20;42.70;;;3.30;99.90;;;-143.32;100.00;53085.34;6109165;23;20416;-91
2021/03/01 04:42:14;;;;;;;214.73;46.30;;;3.10;99.90;;;-143.32;100.00;52798.56;6183292;23;20445;-89
2021/03/01 04:44:59;;;;;;;226.10;48.27;;;3.10;99.90;;;-143.32;100.00;52808.66;6187278;23;20457;-92
2021/03/01 04:47:47;;;;;;;205.90;47.07;;;3.00;99.90;;;-143.32;100.00;52849.06;6188197;23;20406;-91
2021/03/01 04:50:24;;;;;;;216.63;48.70;;;2.90;99.90;;;-143.32;100.00;52822.81;6187619;23;20417;-90
2021/03/01 04:52:57;;;;;;;222.03;49.63;;;2.90;99.90;;;-143.32;100.00;52851.09;6187174;23;20397;-90
2021/03/01 04:56:07;;;;;;;235.43;47.70;;;2.80;99.90;;;-143.32;100.00;52820.78;6187100;23;20378;-91
2021/03/01 05:02:40;;;;;;;184.90;42.43;;;2.90;99.90;;;-143.32;100.00;52806.66;6068033;23;20430;-87
2021/03/01 05:05:41;;;;;;;;;;;;;;;;;;;;;
2021/03/01 05:08:47;;;;;;;;;;;;;;;;;;;;;
2021/03/01 05:15:59;;;;;;;213.80;45.10;;;2.80;99.90;;;-143.32;100.00;52778.38;5926684;24;20505;-92
2021/03/01 05:21:59;;;;;;;215.83;45.67;;;2.90;99.90;;;-143.32;100.00;52762.22;6038919;23;20495;-94
2021/03/01 05:24:59;;;;;;;200.47;50.17;;;2.90;99.90;;;-143.32;100.00;52735.97;6186831;23;20413;-91
2021/03/01 06:05:42;;;;;;;125.33;37.37;;;2.90;99.90;;;-143.32;100.00;52861.19;6110461;23;20720;-89
2021/03/01 06:08:11;;;;;;;122.63;37.60;;;2.80;99.90;;;-143.32;100.00;52877.34;6191188;23;20886;-88
2021/03/01 06:10:46;;;;;;;126.27;39.60;;;2.90;99.90;;;-143.32;100.00;52960.13;6247236;23;20431;-89
2021/03/01 06:13:16;;;;;;;115.47;36.03;;;2.70;99.90;;;-143.32;100.00;52905.59;6247803;23;20384;-90
2021/03/01 06:16:11;;;;;;;105.87;37.20;;;2.70;99.90;;;-143.32;100.00;52875.31;6247470;23;20499;-92
2021/03/01 06:19:33;;;;;;;116.93;35.77;;;2.80;99.90;;;-143.32;100.00;52851.09;6248460;23;20400;-92
2021/03/01 06:22:25;;;;;;;117.90;37.77;;;2.80;99.90;;;-143.32;100.00;52847.03;6246795;23;20775;-90
2021/03/01 06:28:30;;;;;;;118.47;37.20;;;2.80;99.90;;;-143.32;100.00;52808.66;6205554;23;20443;-89
2021/03/01 06:37:56;;;;;;;103.30;34.40;;;2.70;99.90;;;-143.32;100.00;52820.78;6224656;23;20899;-88
2021/03/01 06:40:47;;;;;;;107.47;37.07;;;2.80;99.90;;;-143.32;100.00;52845.03;6247099;23;20814;-91
2021/03/01 06:50:46;;;;;;;100.93;35.37;;;2.80;99.90;;;-143.32;100.00;52849.06;6126279;23;20383;-91
2021/03/01 06:53:41;;;;;;;112.00;34.37;;;2.80;99.90;;;-143.32;100.00;52810.69;6124376;23;20435;-88
2021/03/01 06:56:21;;;;;;;107.83;36.67;;;2.80;99.90;;;-143.32;100.00;52843.00;6128649;23;20819;-87
2021/03/01 07:03:42;;;;;;;110.60;36.80;;;2.80;99.90;;;-143.32;100.00;52834.94;6142057;23;21023;-92
2021/03/01 07:06:12;;;;;;;101.80;33.57;;;2.90;99.90;;;-143.32;100.00;52834.94;6182680;23;20497;-91
2021/03/01 07:09:02;;;;;;;109.40;35.27;;;2.90;99.90;;;-143.32;100.00;52887.44;6247236;23;20952;-91
2021/03/01 07:12:04;;;;;;;87.93;32.07;;;2.80;99.90;;;-143.32;100.00;52915.69;6246649;23;20495;-92
2021/03/01 07:14:52;;;;;;;124.27;35.40;;;2.80;99.90;;;-143.32;100.00;52899.53;6246491;23;20408;-91
2021/03/01 07:17:19;;;;;;;113.67;35.90;;;2.80;99.90;;;-143.32;100.00;52919.75;6246859;23;20469;-90
2021/03/01 07:19:46;;;;;;;114.67;35.20;;;2.80;99.90;;;-143.32;100.00;52925.78;6246216;23;20447;-92
2021/03/01 07:22:14;;;;;;;104.47;34.13;;;2.80;99.90;;;-143.32;100.00;52919.75;6246545;23;20392;-88
2021/03/01 07:24:44;;;;;;;101.97;35.30;;;2.70;99.90;;;-143.32;100.00;52889.44;6246390;23;20485;-90
2021/03/01 07:27:12;;;;;;;113.27;37.27;;;2.70;99.90;;;-143.32;100.00;52905.59;6246416;23;20851;-90
2021/03/01 07:29:52;;;;;;;107.03;37.57;;;2.80;99.90;;;-143.32;100.00;52824.81;6247701;23;20695;-89
2021/03/01 07:36:01;;;;;;;105.00;36.17;;;2.80;99.90;;;-143.32;100.00;52885.41;6247675;23;20666;-91
2021/03/01 07:38:32;;;;;;;115.73;36.03;;;2.80;99.90;;;-143.32;100.00;52901.56;6246703;23;20399;-89
2021/03/01 07:41:03;;;;;;;112.57;37.27;;;2.80;99.90;;;-143.32;100.00;52853.09;6246854;23;20494;-91
2021/03/01 07:43:48;;;;;;;149.07;34.70;;;2.80;99.90;;;-143.32;100.00;52853.09;6246138;23;20387;-90
2021/03/01 07:46:18;;;;;;;112.70;35.00;;;2.90;99.90;;;-143.32;100.00;52891.47;6246823;22;20423;-91
2021/03/01 07:57:14;;;;;;;;;;;;;;;;;;;;;
2021/03/01 09:53:59;;;;;;;127.20;36.50;;;3.50;99.90;;;-143.32;100.00;52915.69;5889963;24;20437;-91
2021/03/01 10:47:01;;;;;;;;;;;;;;;;;;;;;
2021/03/01 10:49:39;;;;;;;80.40;30.60;;;3.90;99.90;;;-143.32;100.00;52956.09;6170329;23;20479;-90
2021/03/01 10:52:09;;;;;;;89.87;32.80;;;4.00;99.90;;;-143.32;100.00;52715.78;6217453;23;20507;-91
2021/03/01 10:54:57;;;;;;;84.97;30.83;;;4.00;99.90;;;-143.32;100.00;52875.31;6220718;23;20436;-93
2021/03/01 11:02:07;;;;;;;84.87;29.83;;;4.20;99.90;;;-143.32;100.00;52857.13;6128844;23;20438;-88
2021/03/01 11:04:35;;;;;;;85.13;32.23;;;4.30;99.90;;;-143.32;100.00;53000.50;6154139;23;20463;-89
2021/03/01 11:14:07;;;;;;;77.00;29.70;;;4.10;99.90;;;-143.32;100.00;53038.88;6216147;23;20424;-92
2021/03/01 11:16:36;;;;;;;85.17;29.30;;;4.10;99.90;;;-143.32;100.00;53044.94;6216310;23;20720;-90
2021/03/01 11:20:00;;;;;;;83.47;29.50;;;4.30;99.90;;;-143.32;100.00;53014.66;6215760;23;20405;-90
2021/03/01 11:23:02;;;;;;;74.77;28.33;;;4.40;99.90;;;-143.32;100.00;53065.13;6123664;23;20490;-89
2021/03/01 11:26:27;;;;;;;79.60;28.97;;;4.40;99.90;;;-143.32;100.00;53073.22;6166488;23;20412;-90
2021/03/01 11:29:18;;;;;;;82.57;30.20;;;4.50;99.90;;;-143.32;100.00;53024.75;6215382;23;20740;-89
2021/03/01 11:32:03;;;;;;;71.57;27.77;;;4.80;99.90;;;-143.32;100.00;53053.03;6216379;23;20708;-89
2021/03/01 11:34:36;;;;;;;77.60;28.30;;;4.80;99.90;;;-143.32;100.00;52941.94;6217072;23;20412;-88
2021/03/01 11:37:10;;;;;;;77.00;29.47;;;4.70;99.90;;;-143.32;100.00;53042.94;6216658;23;20452;-91
2021/03/01 11:39:38;;;;;;;95.07;35.93;;;4.60;99.90;;;-143.32;100.00;53087.34;6215424;23;20482;-88
2021/03/01 11:42:10;;;;;;;88.53;30.20;;;4.50;99.90;;;-143.32;100.00;53044.94;6216756;23;20440;-88
2021/03/01 11:44:37;;;;;;;86.40;30.50;;;4.20;99.90;;;-143.32;100.00;53123.72;6217922;23;20693;-88
2021/03/01 11:50:48;;;;;;;84.20;30.70;;;4.20;99.90;;;-143.32;100.00;53105.53;6221713;22;20432;-90
2021/03/01 11:53:17;;;;;;;76.30;28.97;;;4.40;99.90;;;-143.32;100.00;53125.72;6220045;23;20511;-89
2021/03/01 11:55:47;;;;;;;86.53;29.70;;;4.30;99.90;;;-143.32;100.00;53147.94;6218787;23;20413;-89
2021/03/01 11:58:47;;;;;;;85.53;31.60;;;4.40;99.90;;;-143.32;100.00;53170.16;6218212;23;20443;-92
2021/03/01 12:01:14;;;;;;;78.10;29.73;;;4.40;99.90;;;-143.32;100.00;53184.28;6154197;23;20448;-91
2021/03/01 12:03:43;;;;;;;87.47;31.60;;;4.30;99.90;;;-143.32;100.00;53137.84;6219296;23;20441;-93
2021/03/01 12:06:47;;;;;;;88.13;29.00;;;4.30;99.90;;;-143.32;100.00;53111.59;6217947;23;20514;-92
2021/03/01 12:17:40;;;;;;;73.63;27.27;;;4.70;99.90;;;-143.32;100.00;53101.50;6068067;23;20377;-91
2021/03/01 12:24:47;;;;;;;74.70;26.53;;;4.90;99.90;;;-143.32;100.00;53006.56;5933677;24;20415;-89
2021/03/01 12:27:42;;;;;;;66.43;26.00;;;5.10;99.90;;;-143.32;100.00;53099.47;5927900;24;20407;-91
2021/03/01 12:30:41;;;;;;;59.50;25.10;;;5.30;99.90;;;-143.32;100.00;53099.47;5940023;24;20766;-89
2021/03/01 12:33:34;;;;;;;71.83;26.67;;;5.50;99.90;;;-143.32;100.00;53079.28;6087083;23;20721;-88
2021/03/01 12:36:14;;;;;;;68.73;26.57;;;5.50;99.90;;;-143.32;100.00;53172.19;6218354;23;20732;-87
2021/03/01 12:38:52;;;;;;;;;;;;;;;;;;;;;
2021/03/01 12:41:42;;;;;;;71.17;26.00;;;5.40;99.90;;;-143.32;100.00;53154.00;6224598;23;20435;-91
2021/03/01 12:44:33;;;;;;;62.07;25.83;;;5.40;99.90;;;-143.32;100.00;53204.50;6218598;23;20404;-90
2021/03/01 12:47:10;;;;;;;61.27;24.67;;;5.00;99.90;;;-143.32;100.00;53147.94;6217688;23;20416;-90
2021/03/01 12:49:37;;;;;;;72.17;25.83;;;5.10;99.90;;;-143.32;100.00;53139.88;6217609;23;20694;-89
2021/03/01 12:52:06;;;;;;;59.10;23.47;;;5.30;99.90;;;-143.32;100.00;53131.78;6218295;23;20409;-88
2021/03/01 12:54:33;;;;;;;64.90;25.10;;;5.50;99.90;;;-143.32;100.00;53168.13;6218309;23;20424;-90
2021/03/01 13:00:41;;;;;;;57.50;24.10;;;5.30;99.90;;;-143.32;100.00;53206.50;6218319;23;20478;-92
2021/03/01 13:03:08;;;;;;;64.17;24.77;;;5.10;99.90;;;-143.32;100.00;53200.44;6218901;23;20401;-92
2021/03/01 13:05:41;;;;;;;60.17;24.70;;;5.10;99.90;;;-143.32;100.00;53202.47;6221002;23;20417;-89
2021/03/01 13:08:09;;;;;;;57.70;23.73;;;5.10;99.90;;;-143.32;100.00;53160.06;6217352;23;20417;-88
2021/03/01 13:10:36;;;;;;;56.63;23.27;;;5.30;99.90;;;-143.32;100.00;53192.38;6217277;23;20409;-90
2021/03/01 13:13:08;;;;;;;52.67;22.47;;;5.40;99.90;;;-143.32;100.00;53190.34;6216941;23;20887;-91
2021/03/01 13:15:42;;;;;;;54.97;23.90;;;5.50;99.90;;;-143.32;100.00;53186.31;6217983;23;20729;-93
2021/03/01 13:18:13;;;;;;;54.90;24.23;;;5.50;99.90;;;-143.32;100.00;53238.81;6218082;23;20515;-88
2021/03/01 13:20:46;;;;;;;60.53;24.57;;;5.30;99.90;;;-143.32;100.00;53216.59;6220067;23;20432;-93
2021/03/01 13:23:14;;;;;;;60.40;24.80;;;5.20;99.90;;;-143.32;100.00;53230.75;6221947;23;20400;-93
2021/03/01 13:25:44;;;;;;;55.73;25.20;;;5.10;99.90;;;-143.32;100.00;53246.91;6219044;23;20495;-93
2021/03/01 13:28:11;;;;;;;54.10;24.90;;;5.00;99.90;;;-143.32;100.00;53236.81;6218997;23;20412;-92
2021/03/01 13:30:38;;;;;;;60.60;24.60;;;4.90;99.90;;;-143.32;100.00;53248.94;6217560;23;20401;-90
2021/03/01 13:33:18;;;;;;;51.47;22.30;;;4.90;99.90;;;-143.32;100.00;53218.63;6218543;23;20401;-92
2021/03/01 13:35:45;;;;;;;62.57;26.23;;;4.90;99.90;;;-143.32;100.00;53216.59;6217215;23;20385;-92
2021/03/01 13:38:12;;;;;;;53.30;23.40;;;4.90;99.90;;;-143.32;100.00;53269.13;6217189;23;20467;-91
2021/03/01 13:40:39;;;;;;;60.27;25.03;;;5.00;99.90;;;-143.32;100.00;53210.56;6218337;23;20440;-93
2021/03/01 13:43:10;;;;;;;58.80;23.40;;;5.20;99.90;;;-143.32;100.00;53216.59;6218336;23;20413;-93
2021/03/01 13:45:39;;;;;;;67.13;29.23;;;5.30;99.90;;;-143.32;100.00;53186.31;6219126;23;20432;-89
2021/03/01 13:48:29;;;;;;;56.73;26.13;;;5.40;99.90;;;-143.32;100.00;53194.41;6218528;23;20417;-93
2021/03/01 13:50:56;;;;;;;54.63;25.50;;;5.50;99.90;;;-143.32;100.00;53218.63;6217374;23;20436;-92
2021/03/01 13:53:23;;;;;;;54.43;24.87;;;5.50;99.90;;;-143.32;100.00;53257.00;6217082;23;20423;-91
2021/03/01 13:55:53;;;;;;;54.80;23.60;;;5.40;99.90;;;-143.32;100.00;53222.66;6217113;23;20459;-92
2021/03/01 13:58:23;;;;;;;65.70;25.97;;;5.20;99.90;;;-143.32;100.00;53184.28;6217348;23;20456;-90
2021/03/01 14:00:58;;;;;;;57.77;23.17;;;5.20;99.90;;;-143.32;100.00;53257.00;6217113;23;20449;-89
2021/03/01 14:03:32;;;;;;;53.73;24.70;;;5.30;99.90;;;-143.32;100.00;53236.81;6218666;23;20377;-90
2021/03/01 14:09:45;;;;;;;59.10;22.03;;;5.20;99.90;;;-143.32;100.00;53295.38;6216261;23;20376;-91
2021/03/01 14:12:20;;;;;;;60.73;24.30;;;5.20;99.90;;;-143.32;100.00;53263.06;6217638;23;20902;-90
2021/03/01 14:14:47;;;;;;;58.03;25.00;;;5.10;99.90;;;-143.32;100.00;53244.88;6217317;23;20641;-91
2021/03/01 14:17:14;;;;;;;56.53;26.90;;;5.10;99.90;;;-143.32;100.00;53259.03;6216246;23;20907;-86
2021/03/01 14:19:41;;;;;;;62.73;27.27;;;5.00;99.90;;;-143.32;100.00;53232.75;6217007;23;20444;-92
2021/03/01 14:22:08;;;;;;;59.53;28.50;;;5.10;99.90;;;-143.32;100.00;53248.94;6216061;23;20420;-89
2021/03/01 14:24:37;;;;;;;64.97;26.60;;;5.20;99.90;;;-143.32;100.00;53208.53;6223134;23;20401;-89
2021/03/01 14:27:05;;;;;;;65.67;25.70;;;5.20;99.90;;;-143.32;100.00;53200.44;6221619;23;20467;-90
2021/03/01 14:29:36;;;;;;;57.00;25.37;;;5.30;99.90;;;-143.32;100.00;53254.97;6216632;23;20392;-90
2021/03/01 14:32:04;;;;;;;65.90;26.03;;;5.30;99.90;;;-143.32;100.00;53250.94;6217438;23;20527;-91
2021/03/01 14:34:31;;;;;;;56.77;24.83;;;5.30;99.90;;;-143.32;100.00;53232.75;6216782;23;20409;-90
2021/03/01 14:37:18;;;;;;;63.93;26.90;;;5.30;99.90;;;-143.32;100.00;53230.75;6217150;23;20768;-91
2021/03/01 15:00:54;;;;;;;69.73;31.30;;;5.30;99.90;;;-143.32;100.00;53244.88;5985917;24;20447;-89
2021/03/01 15:03:21;;;;;;;75.60;30.83;;;5.20;99.90;;;-143.32;100.00;53206.50;5988730;24;20510;-92
2021/03/01 15:06:16;;;;;;;74.30;33.23;;;5.20;99.90;;;-143.32;100.00;53252.97;6047249;23;20405;-93
2021/03/01 15:09:06;;;;;;;72.07;29.97;;;5.20;99.90;;;-143.32;100.00;53208.53;6222278;23;20448;-93
2021/03/01 15:12:15;;;;;;;75.53;30.63;;;5.20;99.90;;;-143.32;100.00;53206.50;6217957;23;20413;-94
2021/03/01 15:15:29;;;;;;;72.20;30.57;;;5.30;99.90;;;-143.32;100.00;53186.31;6225240;23;20902;-94
2021/03/01 15:18:19;;;;;;;75.77;31.23;;;5.50;99.90;;;-143.32;100.00;53214.59;6221287;23;20428;-94
2021/03/01 15:21:10;;;;;;;73.37;31.00;;;5.40;99.90;;;-143.32;100.00;53194.41;6218966;23;20417;-92
2021/03/01 15:28:53;;;;;;;62.43;29.50;;;5.30;99.90;;;-143.32;100.00;53232.75;6203254;23;20907;-89
2021/03/01 15:31:38;;;;;;;64.50;31.50;;;5.20;99.90;;;-143.32;100.00;53222.66;6225509;23;20390;-91
2021/03/01 15:34:17;;;;;;;62.63;29.23;;;5.10;99.90;;;-143.32;100.00;53220.66;6209572;23;20393;-92
2021/03/01 15:36:47;;;;;;;79.73;33.50;;;5.20;99.90;;;-143.32;100.00;53198.44;6219613;23;20408;-91
2021/03/01 15:39:19;;;;;;;83.90;34.60;;;5.20;99.90;;;-143.32;100.00;53194.41;6226795;23;20420;-91
2021/03/01 15:41:49;;;;;;;70.17;30.73;;;5.20;99.90;;;-143.32;100.00;53232.75;6222468;23;20412;-93
2021/03/01 15:44:49;;;;;;;64.70;29.20;;;5.10;99.90;;;-143.32;100.00;53214.59;6229039;23;20467;-92
2021/03/01 15:47:16;;;;;;;71.20;31.30;;;5.10;99.90;;;-143.32;100.00;53204.50;6192674;23;20504;-89
2021/03/01 15:58:50;;;;;;;74.73;32.50;;;4.80;99.90;;;-143.32;100.00;53224.69;6038660;23;20449;-90
2021/03/01 16:01:30;;;;;;;65.93;31.63;;;4.70;99.90;;;-143.32;100.00;53212.56;6039164;23;20478;-92
2021/03/01 16:04:05;;;;;;;72.13;31.10;;;4.80;99.90;;;-143.32;100.00;53220.66;6163479;23;20416;-94
2021/03/01 16:06:33;;;;;;;59.00;28.43;;;4.80;99.90;;;-143.32;100.00;53226.72;6216075;23;20373;-92
2021/03/01 16:09:15;;;;;;;60.83;29.63;;;4.70;99.90;;;-143.32;100.00;53236.81;6215530;23;20475;-92
2021/03/01 16:11:45;;;;;;;72.30;29.93;;;4.60;99.90;;;-143.32;100.00;53232.75;6216103;23;20694;-93
2021/03/01 16:14:25;;;;;;;69.10;29.13;;;4.60;99.90;;;-143.32;100.00;53210.56;6216813;23;20902;-92
2021/03/01 16:16:54;;;;;;;64.77;29.27;;;4.60;99.90;;;-143.32;100.00;53188.34;6217449;23;20389;-92
2021/03/01 16:19:26;;;;;;;57.30;29.20;;;4.70;99.90;;;-143.32;100.00;53184.28;6216115;23;20416;-89
2021/03/01 16:21:59;;;;;;;62.40;29.10;;;4.80;99.90;;;-143.32;100.00;53214.59;6218649;23;20421;-92
2021/03/01 16:24:34;;;;;;;72.17;33.27;;;4.80;99.90;;;-143.32;100.00;53236.81;6216054;23;20500;-92
2021/03/01 16:27:01;;;;;;;69.37;31.53;;;4.70;99.90;;;-143.32;100.00;53208.53;6223555;23;20769;-90
2021/03/01 16:33:17;;;;;;;68.47;32.10;;;4.70;99.90;;;-143.32;100.00;53238.81;6223041;23;20456;-89
2021/03/01 16:39:26;;;;;;;74.47;32.30;;;4.60;99.90;;;-143.32;100.00;53208.53;6217373;23;20692;-88
2021/03/01 16:41:57;;;;;;;67.00;33.70;;;4.70;99.90;;;-143.32;100.00;53218.63;6217989;23;20398;-93
2021/03/01 16:44:27;;;;;;;68.83;31.57;;;4.70;99.90;;;-143.32;100.00;53222.66;6219131;23;20370;-90
2021/03/01 16:46:56;;;;;;;61.73;30.53;;;4.70;99.90;;;-143.32;100.00;53166.13;6220293;23;20500;-93
2021/03/01 16:49:49;;;;;;;61.20;29.83;;;4.70;99.90;;;-143.32;100.00;53198.44;6221216;23;20421;-93
2021/03/01 16:52:31;;;;;;;;;;;;;;;;;;;;;
2021/03/01 16:55:03;;;;;;;66.17;30.00;;;4.70;99.90;;;-143.32;100.00;53190.34;6221530;23;20392;-92
2021/03/01 16:57:43;;;;;;;51.43;26.30;;;4.70;99.90;;;-143.32;100.00;53188.34;6222597;23;20405;-92
2021/03/01 17:00:18;;;;;;;47.83;24.10;;;4.70;99.90;;;-143.32;100.00;53188.34;6224900;23;20440;-92
2021/03/01 17:02:45;;;;;;;42.83;23.07;;;4.70;99.90;;;-143.32;100.00;53200.44;6220924;23;20846;-94
2021/03/01 17:05:21;;;;;;;42.93;23.20;;;4.70;99.90;;;-143.32;100.00;53214.59;6219227;23;20925;-91
2021/03/01 17:08:03;;;;;;;38.33;21.37;;;4.70;99.90;;;-143.32;100.00;53198.44;6226407;23;20396;-94
2021/03/01 17:11:02;;;;;;;;;;;;;;;;;;;;;
2021/03/01 17:13:57;;;;;;;42.13;22.73;;;4.70;99.90;;;-143.32;100.00;53200.44;6219057;23;20385;-92
2021/03/01 17:16:30;;;;;;;52.13;22.37;;;4.60;99.90;;;-143.32;100.00;53190.34;6218416;23;20393;-91
2021/03/01 17:18:58;;;;;;;41.20;21.87;;;4.60;99.90;;;-143.32;100.00;53192.38;6220050;23;20875;-93
2021/03/01 17:36:26;;;;;;;50.77;21.03;;;4.40;99.90;;;-143.32;100.00;53216.59;6186081;23;20496;-92
2021/03/01 17:39:19;;;;;;;;;;;;;;;;;;;;;
2021/03/01 17:42:01;;;;;;;38.70;20.10;;;4.60;99.90;;;-143.32;100.00;53206.50;6214958;23;20401;-91
2021/03/01 17:45:05;;;;;;;56.07;21.77;;;4.50;99.90;;;-143.32;100.00;53202.47;6219168;23;20405;-91
2021/03/01 17:48:09;;;;;;;39.10;20.80;;;4.50;99.90;;;-143.32;100.00;53222.66;6205529;23;20404;-90
2021/03/01 17:50:41;;;;;;;42.00;20.60;;;4.50;99.90;;;-143.32;100.00;53174.19;6217133;23;20408;-89
2021/03/01 17:53:41;;;;;;;;;;;;;;;;;;;;;
2021/03/01 17:56:58;;;;;;;;;;;;;;;;;;;;;
2021/03/01 18:06:50;;;;;;;44.57;22.00;;;4.40;99.90;;;-143.32;100.00;53190.34;6051392;23;20481;-90
2021/03/01 18:09:35;;;;;;;45.90;22.20;;;4.50;99.90;;;-143.32;100.00;53202.47;6216657;23;20393;-90
2021/03/01 18:12:29;;;;;;;46.33;20.73;;;4.40;99.90;;;-143.32;100.00;53220.66;6216781;23;20772;-91
2021/03/01 18:15:24;;;;;;;;;;;;;;;;;;;;;
2021/03/01 18:18:29;;;;;;;;;;;;;;;;;;;;;
2021/03/01 18:33:35;;;;;;;47.40;21.67;;;4.30;99.90;;;-143.32;100.00;53180.25;6009708;23;20761;-91
2021/03/01 19:18:17;;;;;;;42.90;22.23;;;4.80;99.90;;;-143.32;100.00;53147.94;6017803;23;20447;-94
2021/03/01 20:49:09;;;;;;;38.37;18.27;;;4.40;99.90;;;-143.32;100.00;53202.47;6167891;23;20434;-89
2021/03/01 20:51:41;;;;;;;31.53;17.30;;;4.30;99.90;;;-143.32;100.00;53176.22;6129799;23;20415;-92
2021/03/01 20:54:39;;;;;;;30.03;17.10;;;4.30;99.90;;;-143.32;100.00;53214.59;6162454;23;20402;-91
2021/03/01 20:57:07;;;;;;;31.47;17.23;;;4.30;99.90;;;-143.32;100.00;53182.28;6151447;23;20497;-92
2021/03/01 20:59:34;;;;;;;32.43;17.10;;;4.30;99.90;;;-143.32;100.00;53182.28;6159801;23;20398;-92
2021/03/01 21:02:32;;;;;;;35.20;18.27;;;4.30;99.90;;;-143.32;100.00;53208.53;6159225;23;20503;-91
2021/03/01 21:05:04;;;;;;;35.70;17.77;;;4.50;99.90;;;-143.32;100.00;53194.41;6165061;23;20795;-91
2021/03/01 21:07:38;;;;;;;32.40;16.50;;;4.30;99.90;;;-143.32;100.00;53182.28;6159075;23;20889;-93
2021/03/01 21:10:12;;;;;;;40.93;19.50;;;4.10;99.90;;;-143.32;100.00;53240.84;6159594;23;20391;-92
2021/03/01 21:12:52;;;;;;;32.20;17.83;;;4.20;99.90;;;-143.32;100.00;53220.66;6159269;23;20402;-92
2021/03/01 21:15:31;;;;;;;36.47;17.90;;;4.00;99.90;;;-143.32;100.00;53218.63;6160118;23;20394;-93
2021/03/01 21:19:45;;;;;;;;;;;;;;;;;;;;;
2021/03/01 21:29:10;;;;;;;;;;;;;;;;;;;;;
2021/03/01 21:31:55;;;;;;;35.73;18.30;;;4.00;99.90;;;-143.32;100.00;53222.66;6212076;23;20412;-91
2021/03/01 21:35:07;;;;;;;37.17;17.20;;;4.00;99.90;;;-143.32;100.00;53208.53;6237359;23;20401;-90
2021/03/01 21:43:01;;;;;;;36.20;18.80;;;4.00;99.90;;;-143.32;100.00;53244.88;6220505;23;20456;-89
2021/03/01 21:45:29;;;;;;;35.10;17.53;;;4.00;99.90;;;-143.32;100.00;53242.88;6216889;23;20704;-90
2021/03/01 21:48:00;;;;;;;34.73;18.17;;;4.00;99.90;;;-143.32;100.00;53216.59;6217102;23;20389;-89
2021/03/01 21:50:28;;;;;;;40.60;19.40;;;3.90;99.90;;;-143.32;100.00;53275.19;6217561;23;20452;-88
2021/03/01 21:53:01;;;;;;;34.43;18.17;;;3.90;99.90;;;-143.32;100.00;53232.75;6216647;23;20943;-91
2021/03/01 21:55:34;;;;;;;37.80;18.83;;;3.90;99.90;;;-143.32;100.00;53230.75;6216856;23;20408;-91
2021/03/01 21:58:04;;;;;;;33.37;18.77;;;3.90;99.90;;;-143.32;100.00;53220.66;6216988;23;20462;-88
2021/03/01 22:00:38;;;;;;;32.40;17.73;;;3.90;99.90;;;-143.32;100.00;53232.75;6216334;23;20942;-91
2021/03/01 22:03:13;;;;;;;31.30;16.03;;;3.80;99.90;;;-143.32;100.00;53236.81;6216881;23;20385;-92
2021/03/01 22:05:45;;;;;;;34.50;18.40;;;4.00;99.90;;;-143.32;100.00;53240.84;6216331;23;20393;-89
2021/03/01 22:08:19;;;;;;;43.13;19.50;;;3.90;99.90;;;-143.32;100.00;53218.63;6216980;23;20685;-90
2021/03/01 22:10:46;;;;;;;34.97;17.00;;;3.90;99.90;;;-143.32;100.00;53244.88;6216862;23;20447;-91
2021/03/01 22:13:23;;;;;;;33.27;18.27;;;3.80;99.90;;;-143.32;100.00;53267.09;6216587;23;20413;-92
2021/03/01 22:15:54;;;;;;;36.50;18.33;;;3.70;99.90;;;-143.32;100.00;53259.03;6216630;23;20439;-89
2021/03/01 22:18:36;;;;;;;33.23;17.37;;;3.60;99.90;;;-143.32;100.00;53285.28;6216868;23;20400;-91
2021/03/01 22:21:53;;;;;;;35.20;19.40;;;3.50;99.90;;;-143.32;100.00;53295.38;6219893;23;20769;-88
2021/03/01 22:24:22;;;;;;;31.93;18.03;;;3.50;99.90;;;-143.32;100.00;53283.25;6114761;23;20440;-90
2021/03/01 22:26:54;;;;;;;39.80;17.90;;;3.40;99.90;;;-143.32;100.00;53323.66;6217855;23;20420;-90
2021/03/01 22:29:28;;;;;;;33.10;18.43;;;3.30;99.90;;;-143.32;100.00;53281.25;6216809;23;20456;-91
2021/03/01 22:32:04;;;;;;;35.40;18.10;;;3.40;99.90;;;-143.32;100.00;53311.53;6216089;23;20384;-91
2021/03/01 22:34:39;;;;;;;35.97;17.90;;;3.30;99.90;;;-143.32;100.00;53287.28;6216738;23;20496;-91
2021/03/01 22:37:09;;;;;;;34.00;18.03;;;3.30;99.90;;;-143.32;100.00;53321.63;6216691;23;20373;-92
2021/03/01 22:39:38;;;;;;;35.50;19.07;;;3.30;99.90;;;-143.32;100.00;53289.31;6216509;23;20382;-89
2021/03/01 22:42:09;;;;;;;37.90;19.37;;;3.30;99.90;;;-143.32;100.00;53295.38;6216692;23;20479;-89
2021/03/01 22:44:43;;;;;;;36.40;18.93;;;3.20;99.90;;;-143.32;100.00;53275.19;6216433;23;20428;-91
2021/03/01 22:47:12;;;;;;;41.10;20.13;;;3.20;99.90;;;-143.32;100.00;53299.41;6217117;23;20389;-89
2021/03/01 22:49:41;;;;;;;41.70;20.67;;;3.40;99.90;;;-143.32;100.00;53289.31;6217245;23;20698;-91
2021/03/01 22:52:11;;;;;;;37.40;18.53;;;3.30;99.90;;;-143.32;100.00;53271.13;6216314;23;20408;-90
2021/03/01 22:54:39;;;;;;;42.87;20.33;;;3.20;99.90;;;-143.32;100.00;53321.63;6216663;23;20409;-90
2021/03/01 22:57:12;;;;;;;37.20;20.50;;;3.20;99.90;;;-143.32;100.00;53287.28;6216917;23;20736;-90
2021/03/01 22:59:41;;;;;;;43.07;21.67;;;3.20;99.90;;;-143.32;100.00;53275.19;6216707;23;20388;-89
2021/03/01 23:02:09;;;;;;;40.10;20.93;;;3.30;99.90;;;-143.32;100.00;53291.34;6216488;23;20760;-89
2021/03/01 23:04:37;;;;;;;46.30;21.40;;;3.20;99.90;;;-143.32;100.00;53257.00;6216565;23;20440;-90
2021/03/01 23:07:08;;;;;;;45.43;21.70;;;3.20;99.90;;;-143.32;100.00;53254.97;6216316;23;20404;-91
2021/03/01 23:09:37;;;;;;;51.80;23.57;;;3.20;99.90;;;-143.32;100.00;53279.22;6216107;23;20478;-90
2021/03/01 23:12:16;;;;;;;47.30;22.97;;;3.30;99.90;;;-143.32;100.00;53246.91;6216068;23;20409;-89
2021/03/01 23:14:49;;;;;;;45.97;23.60;;;3.30;99.90;;;-143.32;100.00;53275.19;6216561;23;20442;-89
2021/03/01 23:17:29;;;;;;;48.17;22.80;;;3.30;99.90;;;-143.32;100.00;53279.22;6216974;23;20369;-91
2021/03/01 23:20:10;;;;;;;44.63;22.70;;;3.30;99.90;;;-143.32;100.00;53273.16;6215236;23;20405;-89
2021/03/01 23:22:37;;;;;;;49.20;24.20;;;3.30;99.90;;;-143.32;100.00;53250.94;6216461;23;20429;-89
2021/03/01 23:25:09;;;;;;;41.30;21.63;;;3.40;99.90;;;-143.32;100.00;53275.19;6215724;23;20426;-89
2021/03/01 23:27:39;;;;;;;47.87;21.93;;;3.40;99.90;;;-143.32;100.00;53261.03;6216553;23;20405;-89
2021/03/01 23:30:27;;;;;;;46.13;23.10;;;3.40;99.90;;;-143.32;100.00;53261.03;6217041;23;20714;-91
2021/03/01 23:32:58;;;;;;;40.13;21.40;;;3.30;99.90;;;-143.32;100.00;53254.97;6215966;23;20409;-90
2021/03/01 23:35:37;;;;;;;50.33;22.43;;;3.30;99.90;;;-143.32;100.00;53267.09;6216993;23;20705;-91
2021/03/01 23:38:10;;;;;;;44.27;22.20;;;3.30;99.90;;;-143.32;100.00;53252.97;6217057;23;20396;-90
2021/03/01 23:47:41;;;;;;;49.50;22.70;;;3.10;99.90;;;-143.32;100.00;53297.41;6211342;23;20449;-91
